createdAt,value
2019-01-14T00:02:28.496Z,-1.10
2019-01-14T00:05:00.094Z,-1.10
2019-01-14T00:07:34.145Z,-1.10
2019-01-14T00:10:07.450Z,-1.10
2019-01-14T00:12:40.855Z,-1.20
2019-01-14T00:15:24.502Z,-1.20
2019-01-14T00:18:07.252Z,-1.20
2019-01-14T00:20:41.760Z,-1.20
2019-01-14T00:23:17.318Z,-1.20
2019-01-14T00:25:54.474Z,-1.30
2019-01-14T00:28:53.955Z,-1.30
2019-01-14T00:31:36.377Z,-1.30
2019-01-14T00:34:23.848Z,-1.30
2019-01-14T00:36:55.621Z,-1.40
2019-01-14T00:39:39.625Z,-1.40
2019-01-14T00:42:20.475Z,-1.40
2019-01-14T00:44:56.831Z,-1.40
2019-01-14T00:47:36.880Z,-1.40
2019-01-14T00:50:12.831Z,-1.50
2019-01-14T00:52:50.516Z,-1.50
2019-01-14T00:55:26.065Z,-1.50
2019-01-14T00:57:59.994Z,-1.50
2019-01-14T01:00:57.707Z,-1.50
2019-01-14T01:03:30.827Z,-1.60
2019-01-14T01:06:06.453Z,-1.60
2019-01-14T01:08:43.094Z,-1.60
2019-01-14T01:11:23.132Z,-1.60
2019-01-14T01:13:54.393Z,-1.60
2019-01-14T01:16:29.570Z,-1.60
2019-01-14T01:19:13.186Z,-1.60
2019-01-14T01:21:48.366Z,-1.70
2019-01-14T01:24:19.981Z,-1.70
2019-01-14T01:26:55.157Z,-1.70
2019-01-14T01:29:34.636Z,-1.70
2019-01-14T01:32:06.412Z,-1.80
2019-01-14T01:34:38.866Z,-1.80
2019-01-14T01:37:10.738Z,-1.80
2019-01-14T01:40:00.486Z,-1.80
2019-01-14T01:42:31.556Z,-1.80
2019-01-14T01:45:02.502Z,-1.80
2019-01-14T01:47:33.748Z,-1.80
2019-01-14T01:50:05.086Z,-1.90
2019-01-14T01:52:36.499Z,-1.90
2019-01-14T01:55:07.700Z,-1.90
2019-01-14T01:57:39.054Z,-1.90
2019-01-14T02:00:19.356Z,-1.90
2019-01-14T02:02:52.786Z,-1.90
2019-01-14T02:05:25.246Z,-1.90
2019-01-14T02:07:56.480Z,-1.90
2019-01-14T02:10:27.633Z,-1.90
2019-01-14T02:12:58.826Z,-1.90
2019-01-14T02:15:30.037Z,-1.90
2019-01-14T02:18:00.891Z,-1.90
2019-01-14T02:20:32.708Z,-1.90
2019-01-14T02:23:04.085Z,-1.90
2019-01-14T02:25:34.893Z,-1.90
2019-01-14T02:28:05.833Z,-2.00
2019-01-14T02:30:36.705Z,-2.00
2019-01-14T02:33:07.381Z,-2.00
2019-01-14T02:35:38.867Z,-2.00
2019-01-14T02:38:10.041Z,-2.00
2019-01-14T02:40:41.301Z,-2.00
2019-01-14T02:43:12.048Z,-2.00
2019-01-14T02:45:42.870Z,-2.00
2019-01-14T02:48:14.036Z,-2.00
2019-01-14T02:50:44.910Z,-2.00
2019-01-14T02:53:15.881Z,-2.00
2019-01-14T02:55:46.794Z,-2.00
2019-01-14T02:58:17.571Z,-2.00
2019-01-14T03:00:48.809Z,-2.00
2019-01-14T03:03:19.766Z,-2.00
2019-01-14T03:05:50.819Z,-2.00
2019-01-14T03:08:21.821Z,-2.00
2019-01-14T03:10:52.976Z,-2.00
2019-01-14T03:13:24.039Z,-2.00
2019-01-14T03:15:55.120Z,-2.00
2019-01-14T03:18:26.022Z,-2.10
2019-01-14T03:20:57.046Z,-2.10
2019-01-14T03:23:27.774Z,-2.10
2019-01-14T03:25:58.592Z,-2.10
2019-01-14T03:28:29.573Z,-2.10
2019-01-14T03:31:00.387Z,-2.10
2019-01-14T03:33:31.616Z,-2.10
2019-01-14T03:36:02.348Z,-2.20
2019-01-14T03:38:33.249Z,-2.20
2019-01-14T03:41:03.921Z,-2.20
2019-01-14T03:43:35.117Z,-2.20
2019-01-14T03:46:05.847Z,-2.20
2019-01-14T03:48:36.828Z,-2.30
2019-01-14T03:51:07.765Z,-2.30
2019-01-14T03:53:38.841Z,-2.30
2019-01-14T03:56:09.525Z,-2.30
2019-01-14T03:58:40.653Z,-2.30
2019-01-14T04:01:11.625Z,-2.40
2019-01-14T04:03:42.786Z,-2.40
2019-01-14T04:06:13.913Z,-2.40
2019-01-14T04:08:44.774Z,-2.40
2019-01-14T04:11:15.444Z,-2.40
2019-01-14T04:13:46.499Z,-2.50
2019-01-14T04:16:17.559Z,-2.50
2019-01-14T04:18:48.614Z,-2.50
2019-01-14T04:21:19.348Z,-2.50
2019-01-14T04:23:50.192Z,-2.60
2019-01-14T04:26:21.226Z,-2.60
2019-01-14T04:28:52.405Z,-2.60
2019-01-14T04:31:23.509Z,-2.60
2019-01-14T04:33:54.700Z,-2.60
2019-01-14T04:36:25.798Z,-2.60
2019-01-14T04:38:57.047Z,-2.60
2019-01-14T04:41:27.671Z,-2.60
2019-01-14T04:43:58.513Z,-2.70
2019-01-14T04:46:29.386Z,-2.70
2019-01-14T04:49:00.296Z,-2.70
2019-01-14T04:51:31.068Z,-2.70
2019-01-14T04:54:01.866Z,-2.70
2019-01-14T04:56:32.690Z,-2.80
2019-01-14T04:59:03.606Z,-2.80
2019-01-14T05:01:34.341Z,-2.80
2019-01-14T05:04:05.117Z,-2.80
2019-01-14T05:06:36.265Z,-2.80
2019-01-14T05:09:10.390Z,-2.80
2019-01-14T05:11:41.522Z,-2.80
2019-01-14T05:14:12.701Z,-2.80
2019-01-14T05:16:43.587Z,-2.80
2019-01-14T05:19:14.200Z,-2.90
2019-01-14T05:21:45.169Z,-2.90
2019-01-14T05:24:16.050Z,-2.90
2019-01-14T05:26:47.273Z,-2.90
2019-01-14T05:29:17.952Z,-2.90
2019-01-14T05:31:48.741Z,-2.90
2019-01-14T05:34:19.669Z,-3.00
2019-01-14T05:36:51.793Z,-3.00
2019-01-14T05:39:22.474Z,-3.00
2019-01-14T05:41:52.959Z,-3.00
2019-01-14T05:44:23.987Z,-3.00
2019-01-14T05:46:54.702Z,-3.10
2019-01-14T05:49:26.053Z,-3.10
2019-01-14T05:51:57.168Z,-3.10
2019-01-14T05:54:27.804Z,-3.10
2019-01-14T05:56:59.112Z,-3.00
2019-01-14T05:59:29.824Z,-3.10
2019-01-14T06:02:02.254Z,-3.10
2019-01-14T06:04:33.112Z,-3.10
2019-01-14T06:07:04.232Z,-3.10
2019-01-14T06:09:35.387Z,-3.10
2019-01-14T06:12:06.417Z,-3.10
2019-01-14T06:14:37.297Z,-3.10
2019-01-14T06:17:08.197Z,-3.10
2019-01-14T06:19:39.150Z,-3.10
2019-01-14T06:22:09.770Z,-3.10
2019-01-14T06:24:41.024Z,-3.10
2019-01-14T06:27:11.771Z,-3.10
2019-01-14T06:29:42.598Z,-3.10
2019-01-14T06:32:13.109Z,-3.10
2019-01-14T06:34:44.145Z,-3.10
2019-01-14T06:37:14.903Z,-3.20
2019-01-14T06:39:45.842Z,-3.10
2019-01-14T06:42:16.970Z,-3.10
2019-01-14T06:44:47.721Z,-3.20
2019-01-14T06:47:18.912Z,-3.20
2019-01-14T06:49:49.612Z,-3.20
2019-01-14T06:52:20.537Z,-3.20
2019-01-14T06:54:51.669Z,-3.20
2019-01-14T06:57:22.505Z,-3.20
2019-01-14T06:59:53.210Z,-3.20
2019-01-14T07:02:24.251Z,-3.30
2019-01-14T07:04:54.970Z,-3.30
2019-01-14T07:07:26.069Z,-3.30
2019-01-14T07:09:57.358Z,-3.30
2019-01-14T07:12:28.482Z,-3.30
2019-01-14T07:14:59.432Z,-3.30
2019-01-14T07:17:30.789Z,-3.30
2019-01-14T07:20:02.061Z,-3.30
2019-01-14T07:22:32.946Z,-3.20
2019-01-14T07:25:04.021Z,-3.20
2019-01-14T07:27:34.564Z,-3.20
2019-01-14T07:30:07.220Z,-3.20
2019-01-14T07:32:38.301Z,-3.20
2019-01-14T07:35:09.765Z,-3.20
2019-01-14T07:37:42.201Z,-3.20
2019-01-14T07:40:13.952Z,-3.20
2019-01-14T07:42:44.943Z,-3.20
2019-01-14T07:45:16.720Z,-3.20
2019-01-14T07:47:47.900Z,-3.20
2019-01-14T07:50:19.684Z,-3.20
2019-01-14T07:52:50.694Z,-3.20
2019-01-14T07:55:21.602Z,-3.20
2019-01-14T07:57:53.189Z,-3.20
2019-01-14T08:00:26.374Z,-3.20
2019-01-14T08:02:57.476Z,-3.20
2019-01-14T08:05:28.761Z,-3.20
2019-01-14T08:08:00.004Z,-3.20
2019-01-14T08:10:31.337Z,-3.20
2019-01-14T08:13:02.181Z,-3.20
2019-01-14T08:15:32.820Z,-3.20
2019-01-14T08:18:04.051Z,-3.20
2019-01-14T08:20:34.774Z,-3.20
2019-01-14T08:23:07.040Z,-3.10
2019-01-14T08:25:37.983Z,-3.10
2019-01-14T08:28:09.256Z,-3.10
2019-01-14T08:30:40.470Z,-3.00
2019-01-14T08:33:11.180Z,-2.90
2019-01-14T08:35:42.009Z,-2.90
2019-01-14T08:38:13.035Z,-2.70
2019-01-14T08:40:43.824Z,-2.70
2019-01-14T08:43:14.956Z,-2.60
2019-01-14T08:45:46.349Z,-2.60
2019-01-14T08:48:17.049Z,-2.50
2019-01-14T08:50:48.109Z,-2.50
2019-01-14T08:53:18.858Z,-2.40
2019-01-14T08:55:49.875Z,-2.40
2019-01-14T08:58:20.909Z,-2.40
2019-01-14T09:00:51.781Z,-2.40
2019-01-14T09:03:23.100Z,-2.30
2019-01-14T09:05:54.171Z,-2.30
2019-01-14T09:08:28.821Z,-2.40
2019-01-14T09:11:00.697Z,-2.40
2019-01-14T09:13:31.760Z,-2.40
2019-01-14T09:16:02.865Z,-2.40
2019-01-14T09:18:33.532Z,-2.40
2019-01-14T09:21:04.593Z,-2.40
2019-01-14T09:23:35.973Z,-2.40
2019-01-14T09:26:07.168Z,-2.40
2019-01-14T09:28:38.232Z,-2.40
2019-01-14T09:31:09.252Z,-2.40
2019-01-14T09:33:40.320Z,-2.40
2019-01-14T09:36:11.182Z,-2.30
2019-01-14T09:38:42.096Z,-2.30
2019-01-14T09:41:12.960Z,-2.30
2019-01-14T09:43:45.416Z,-2.30
2019-01-14T09:46:16.395Z,-2.30
2019-01-14T09:48:47.284Z,-2.30
2019-01-14T09:51:18.348Z,-2.30
2019-01-14T09:53:49.361Z,-2.30
2019-01-14T09:56:20.599Z,-2.30
2019-01-14T09:58:51.234Z,-2.30
2019-01-14T10:01:22.038Z,-2.20
2019-01-14T10:03:52.824Z,-2.20
2019-01-14T10:06:23.565Z,-2.20
2019-01-14T10:08:54.279Z,-2.20
2019-01-14T10:11:25.540Z,-2.10
2019-01-14T10:13:56.293Z,-2.10
2019-01-14T10:16:27.472Z,-2.00
2019-01-14T10:18:59.850Z,-1.90
2019-01-14T10:21:30.935Z,-1.80
2019-01-14T10:24:02.070Z,-1.80
2019-01-14T10:26:33.024Z,-1.80
2019-01-14T10:29:04.278Z,-1.80
2019-01-14T10:31:35.074Z,-1.90
2019-01-14T10:34:06.170Z,-1.90
2019-01-14T10:36:36.997Z,-1.90
2019-01-14T10:39:08.621Z,-1.90
2019-01-14T10:41:39.685Z,-1.90
2019-01-14T10:44:10.599Z,-1.90
2019-01-14T10:46:41.545Z,-1.80
2019-01-14T10:49:12.321Z,-1.90
2019-01-14T10:51:45.130Z,-1.80
2019-01-14T10:54:15.818Z,-1.80
2019-01-14T10:56:46.864Z,-1.90
2019-01-14T10:59:17.909Z,-1.80
2019-01-14T11:01:49.041Z,-1.80
2019-01-14T11:04:20.018Z,-1.80
2019-01-14T11:06:51.088Z,-1.80
2019-01-14T11:09:22.840Z,-1.80
2019-01-14T11:11:53.982Z,-1.80
2019-01-14T11:14:28.098Z,-1.70
2019-01-14T11:16:59.343Z,-1.70
2019-01-14T11:19:30.490Z,-1.70
2019-01-14T11:22:04.706Z,-1.70
2019-01-14T11:24:51.181Z,-1.60
2019-01-14T11:27:24.604Z,-1.60
2019-01-14T11:29:57.921Z,-1.50
2019-01-14T11:32:41.713Z,-1.40
2019-01-14T11:35:17.391Z,-1.20
2019-01-14T11:38:06.063Z,-1.10
2019-01-14T11:40:41.705Z,-1.10
2019-01-14T11:43:25.320Z,-1.10
2019-01-14T11:46:05.887Z,-1.10
2019-01-14T11:48:46.832Z,-1.20
2019-01-14T11:51:20.947Z,-1.10
2019-01-14T11:53:51.919Z,-1.10
2019-01-14T11:56:33.519Z,-1.10
2019-01-14T11:59:33.984Z,-1.00
2019-01-14T12:02:11.783Z,-0.90
2019-01-14T12:05:04.567Z,-0.80
2019-01-14T12:07:28.954Z,-0.70
2019-01-14T12:10:00.890Z,-0.60
2019-01-14T12:12:33.071Z,-0.60
2019-01-14T12:15:05.318Z,-0.50
2019-01-14T12:17:36.103Z,-0.50
2019-01-14T12:20:07.912Z,-0.40
2019-01-14T12:22:38.760Z,-0.50
2019-01-14T12:25:10.018Z,-0.50
2019-01-14T12:27:41.257Z,-0.50
2019-01-14T12:30:31.538Z,-0.50
2019-01-14T12:33:05.637Z,-0.50
2019-01-14T12:35:36.689Z,-0.50
2019-01-14T12:38:07.863Z,-0.60
2019-01-14T12:40:39.001Z,-0.60
2019-01-14T12:43:11.993Z,-0.70
2019-01-14T12:45:43.000Z,-0.70
2019-01-14T12:48:13.865Z,-0.70
2019-01-14T12:50:48.467Z,-0.80
2019-01-14T12:53:25.393Z,-0.80
2019-01-14T12:55:56.989Z,-0.80
2019-01-14T12:58:31.549Z,-0.90
2019-01-14T13:01:08.869Z,-0.90
2019-01-14T13:03:39.687Z,-0.90
2019-01-14T13:06:14.829Z,-0.90
2019-01-14T13:08:51.317Z,-0.90
2019-01-14T13:11:23.403Z,-0.90
2019-01-14T13:14:05.174Z,-1.00
2019-01-14T13:16:34.253Z,-1.00
2019-01-14T13:19:06.362Z,-1.00
2019-01-14T13:21:38.460Z,-1.00
2019-01-14T13:24:14.103Z,-1.10
2019-01-14T13:26:48.533Z,-1.10
2019-01-14T13:29:21.965Z,-1.10
2019-01-14T13:31:53.594Z,-1.10
2019-01-14T13:34:35.227Z,-1.10
2019-01-14T13:37:14.857Z,-1.10
2019-01-14T13:39:52.658Z,-1.10
2019-01-14T13:42:28.697Z,-1.20
2019-01-14T13:45:05.389Z,-1.20
2019-01-14T13:47:54.150Z,-1.20
2019-01-14T13:50:28.240Z,-1.20
2019-01-14T13:53:09.953Z,-1.20
2019-01-14T13:55:43.259Z,-1.20
2019-01-14T13:58:27.090Z,-1.20
2019-01-14T14:01:06.078Z,-1.30
2019-01-14T14:04:01.598Z,-1.30
2019-01-14T14:06:48.819Z,-1.30
2019-01-14T14:09:40.938Z,-1.30
2019-01-14T14:12:20.147Z,-1.30
2019-01-14T14:15:12.124Z,-1.30
2019-01-14T14:17:56.814Z,-1.40
2019-01-14T14:20:49.572Z,-1.40
2019-01-14T14:23:30.418Z,-1.40
2019-01-14T14:26:06.711Z,-1.40
2019-01-14T14:28:44.511Z,-1.40
2019-01-14T14:31:22.285Z,-1.40
2019-01-14T14:33:58.577Z,-1.40
2019-01-14T14:36:47.198Z,-1.50
2019-01-14T14:39:28.034Z,-1.50
2019-01-14T14:42:07.723Z,-1.50
2019-01-14T14:44:47.629Z,-1.50
2019-01-14T14:47:44.660Z,-1.50
2019-01-14T14:50:21.600Z,-1.50
2019-01-14T14:52:56.234Z,-1.50
2019-01-14T14:55:53.011Z,-1.50
2019-01-14T14:58:56.316Z,-1.50
2019-01-14T15:01:29.221Z,-1.50
2019-01-14T15:04:20.928Z,-1.60
2019-01-14T15:06:56.965Z,-1.60
2019-01-14T15:09:37.482Z,-1.60
2019-01-14T15:12:17.184Z,-1.60
2019-01-14T15:15:03.389Z,-1.60
2019-01-14T15:17:37.255Z,-1.60
2019-01-14T15:20:13.727Z,-1.60
2019-01-14T15:22:48.578Z,-1.60
2019-01-14T15:25:22.031Z,-1.60
2019-01-14T15:27:57.649Z,-1.60
2019-01-14T15:30:41.310Z,-1.60
2019-01-14T15:33:20.943Z,-1.60
2019-01-14T15:35:54.757Z,-1.60
2019-01-14T15:38:33.433Z,-1.60
2019-01-14T15:41:09.958Z,-1.60
2019-01-14T15:43:41.611Z,-1.60
2019-01-14T15:46:27.474Z,-1.60
2019-01-14T15:49:04.757Z,-1.60
2019-01-14T15:51:54.007Z,-1.60
2019-01-14T15:54:30.781Z,-1.60
2019-01-14T15:57:06.504Z,-1.60
2019-01-14T15:59:44.331Z,-1.60
2019-01-14T16:02:15.946Z,-1.60
2019-01-14T16:04:47.641Z,-1.60
2019-01-14T16:07:19.199Z,-1.60
2019-01-14T16:09:52.575Z,-1.60
2019-01-14T16:12:24.609Z,-1.60
2019-01-14T16:15:01.656Z,-1.60
2019-01-14T16:17:33.249Z,-1.60
2019-01-14T16:20:06.709Z,-1.60
2019-01-14T16:22:45.209Z,-1.60
2019-01-14T16:25:19.890Z,-1.60
2019-01-14T16:27:56.922Z,-1.60
2019-01-14T16:30:30.217Z,-1.60
2019-01-14T16:33:04.367Z,-1.60
2019-01-14T16:35:47.542Z,-1.60
2019-01-14T16:38:19.612Z,-1.60
2019-01-14T16:40:50.627Z,-1.60
2019-01-14T16:43:21.953Z,-1.60
2019-01-14T16:45:53.296Z,-1.60
2019-01-14T16:48:24.390Z,-1.50
2019-01-14T16:50:56.435Z,-1.50
2019-01-14T16:53:27.663Z,-1.50
2019-01-14T16:55:58.972Z,-1.60
2019-01-14T16:58:31.316Z,-1.60
2019-01-14T17:01:04.033Z,-1.50
2019-01-14T17:03:37.544Z,-1.50
2019-01-14T17:06:12.078Z,-1.50
2019-01-14T17:08:54.149Z,-1.50
2019-01-14T17:11:24.873Z,-1.50
2019-01-14T17:13:57.357Z,-1.50
2019-01-14T17:16:32.119Z,-1.50
2019-01-14T17:19:04.509Z,-1.50
2019-01-14T17:21:35.616Z,-1.50
2019-01-14T17:24:07.240Z,-1.50
2019-01-14T17:26:46.056Z,-1.50
2019-01-14T17:29:18.487Z,-1.40
2019-01-14T17:31:49.626Z,-1.50
2019-01-14T17:34:23.314Z,-1.50
2019-01-14T17:36:56.138Z,-1.50
2019-01-14T17:39:27.437Z,-1.50
2019-01-14T17:42:05.665Z,-1.50
2019-01-14T17:44:37.406Z,-1.50
2019-01-14T17:47:10.477Z,-1.50
2019-01-14T17:49:41.740Z,-1.50
2019-01-14T17:52:13.545Z,-1.50
2019-01-14T17:54:47.485Z,-1.50
2019-01-14T17:57:24.225Z,-1.50
2019-01-14T17:59:59.131Z,-1.50
2019-01-14T18:02:32.220Z,-1.50
2019-01-14T18:05:03.940Z,-1.50
2019-01-14T18:07:35.159Z,-1.50
2019-01-14T18:10:07.954Z,-1.50
2019-01-14T18:12:41.290Z,-1.50
2019-01-14T18:15:13.193Z,-1.60
2019-01-14T18:17:44.729Z,-1.60
2019-01-14T18:20:18.066Z,-1.60
2019-01-14T18:22:49.651Z,-1.60
2019-01-14T18:25:30.514Z,-1.60
2019-01-14T18:28:05.187Z,-1.60
2019-01-14T18:30:36.703Z,-1.60
2019-01-14T18:33:07.915Z,-1.60
2019-01-14T18:35:41.493Z,-1.60
2019-01-14T18:38:12.766Z,-1.70
2019-01-14T18:40:47.330Z,-1.60
2019-01-14T18:43:20.539Z,-1.60
2019-01-14T18:45:52.366Z,-1.70
2019-01-14T18:48:23.673Z,-1.70
2019-01-14T18:50:54.931Z,-1.70
2019-01-14T18:53:26.152Z,-1.70
2019-01-14T18:55:57.412Z,-1.70
2019-01-14T18:58:28.630Z,-1.70
2019-01-14T19:00:59.716Z,-1.70
2019-01-14T19:03:31.114Z,-1.70
2019-01-14T19:06:02.140Z,-1.70
2019-01-14T19:08:33.262Z,-1.70
2019-01-14T19:11:05.563Z,-1.70
2019-01-14T19:13:36.818Z,-1.70
2019-01-14T19:16:08.156Z,-1.70
2019-01-14T19:18:42.100Z,-1.70
2019-01-14T19:21:13.360Z,-1.60
2019-01-14T19:23:45.683Z,-1.60
2019-01-14T19:26:16.636Z,-1.70
2019-01-14T19:28:48.211Z,-1.60
2019-01-14T19:31:18.997Z,-1.70
2019-01-14T19:33:49.848Z,-1.60
2019-01-14T19:36:21.083Z,-1.60
2019-01-14T19:38:52.175Z,-1.70
2019-01-14T19:41:23.290Z,-1.60
2019-01-14T19:43:54.539Z,-1.60
2019-01-14T19:46:25.714Z,-1.60
2019-01-14T19:48:56.936Z,-1.70
2019-01-14T19:51:28.477Z,-1.60
2019-01-14T19:54:01.239Z,-1.60
2019-01-14T19:56:32.673Z,-1.60
2019-01-14T19:59:04.068Z,-1.60
2019-01-14T20:01:35.416Z,-1.60
2019-01-14T20:04:06.621Z,-1.60
2019-01-14T20:06:38.031Z,-1.50
2019-01-14T20:09:12.042Z,-1.50
2019-01-14T20:11:43.186Z,-1.50
2019-01-14T20:14:14.656Z,-1.50
2019-01-14T20:16:46.386Z,-1.40
2019-01-14T20:19:17.485Z,-1.40
2019-01-14T20:21:48.369Z,-1.40
2019-01-14T20:24:21.779Z,-1.40
2019-01-14T20:26:53.369Z,-1.40
2019-01-14T20:29:29.295Z,-1.30
2019-01-14T20:32:02.897Z,-1.30
2019-01-14T20:34:36.146Z,-1.30
2019-01-14T20:37:07.694Z,-1.30
2019-01-14T20:39:38.649Z,-1.30
2019-01-14T20:42:09.926Z,-1.30
2019-01-14T20:44:41.597Z,-1.30
2019-01-14T20:47:22.621Z,-1.30
2019-01-14T20:50:01.744Z,-1.30
2019-01-14T20:52:33.906Z,-1.20
2019-01-14T20:55:08.796Z,-1.20
2019-01-14T20:57:42.934Z,-1.30
2019-01-14T21:00:20.259Z,-1.20
2019-01-14T21:02:56.518Z,-1.20
2019-01-14T21:05:27.814Z,-1.20
2019-01-14T21:08:07.951Z,-1.20
2019-01-14T21:10:43.413Z,-1.20
2019-01-14T21:13:16.462Z,-1.20
2019-01-14T21:15:47.752Z,-1.20
2019-01-14T21:18:18.427Z,-1.20
2019-01-14T21:20:49.183Z,-1.10
2019-01-14T21:23:20.132Z,-1.10
2019-01-14T21:25:53.282Z,-1.10
2019-01-14T21:28:24.125Z,-1.10
2019-01-14T21:30:56.590Z,-1.10
2019-01-14T21:33:30.283Z,-1.10
2019-01-14T21:36:09.518Z,-1.10
2019-01-14T21:38:43.072Z,-1.10
2019-01-14T21:41:22.104Z,-1.10
2019-01-14T21:43:55.576Z,-1.10
2019-01-14T21:46:28.997Z,-1.10
2019-01-14T21:49:01.407Z,-1.00
2019-01-14T21:51:32.254Z,-1.00
2019-01-14T21:54:02.887Z,-1.00
2019-01-14T21:56:35.315Z,-1.00
2019-01-14T21:59:07.138Z,-1.00
2019-01-14T22:01:50.458Z,-1.00
2019-01-14T22:04:19.840Z,-1.00
2019-01-14T22:06:55.830Z,-1.00
2019-01-14T22:09:31.678Z,-0.90
2019-01-14T22:12:11.954Z,-0.90
2019-01-14T22:15:12.449Z,-0.90
2019-01-14T22:17:44.328Z,-0.90
2019-01-14T22:20:20.394Z,-0.90
2019-01-14T22:22:51.055Z,-0.90
2019-01-14T22:25:22.087Z,-0.90
2019-01-14T22:27:52.858Z,-0.90
2019-01-14T22:30:34.438Z,-0.90
2019-01-14T22:33:15.135Z,-0.90
2019-01-14T22:35:44.072Z,-0.90
2019-01-14T22:38:17.091Z,-0.90
2019-01-14T22:40:48.132Z,-0.90
2019-01-14T22:43:21.997Z,-0.90
2019-01-14T22:45:56.293Z,-0.90
2019-01-14T22:48:30.147Z,-0.90
2019-01-14T22:51:00.909Z,-0.90
2019-01-14T22:53:36.448Z,-0.80
2019-01-14T22:56:19.594Z,-0.90
2019-01-14T22:58:51.271Z,-0.90
2019-01-14T23:01:42.159Z,-0.90
2019-01-14T23:04:28.373Z,-0.90
2019-01-14T23:07:00.989Z,-0.90
2019-01-14T23:09:40.758Z,-0.90
2019-01-14T23:12:14.965Z,-0.90
2019-01-14T23:14:46.366Z,-0.80
2019-01-14T23:17:22.304Z,-0.90
2019-01-14T23:19:53.038Z,-0.90
2019-01-14T23:22:24.249Z,-0.80
2019-01-14T23:24:55.532Z,-0.80
2019-01-14T23:27:26.629Z,-0.80
2019-01-14T23:29:57.526Z,-0.80
2019-01-14T23:32:28.096Z,-0.80
2019-01-14T23:34:59.176Z,-0.80
2019-01-14T23:37:30.249Z,-0.80
2019-01-14T23:40:01.389Z,-0.80
2019-01-14T23:42:32.855Z,-0.80
2019-01-14T23:45:04.148Z,-0.80
2019-01-14T23:47:35.039Z,-0.80
2019-01-14T23:50:06.666Z,-0.80
2019-01-14T23:52:37.651Z,-0.80
2019-01-14T23:55:08.358Z,-0.80
2019-01-14T23:57:39.699Z,-0.80
